createdAt,value
2022-10-05T00:01:27.451Z,73.23
2022-10-05T00:04:03.565Z,73.34
2022-10-05T00:06:31.924Z,73.04
2022-10-05T00:09:02.515Z,73.03
2022-10-05T00:11:30.598Z,72.59
2022-10-05T00:13:59.891Z,72.61
2022-10-05T00:16:28.171Z,72.53
2022-10-05T00:18:56.443Z,72.30
2022-10-05T00:21:28.339Z,72.08
2022-10-05T00:24:03.276Z,71.80
2022-10-05T00:26:34.622Z,71.88
2022-10-05T00:29:07.173Z,71.68
2022-10-05T00:31:37.486Z,71.41
2022-10-05T00:34:05.923Z,71.18
2022-10-05T00:36:34.177Z,70.89
2022-10-05T00:39:05.382Z,70.74
2022-10-05T00:41:47.942Z,70.52
2022-10-05T00:44:37.319Z,70.28
2022-10-05T00:47:19.388Z,70.18
2022-10-05T00:50:29.858Z,69.95
2022-10-05T00:53:06.955Z,69.91
2022-10-05T00:55:51.918Z,69.95
2022-10-05T00:58:34.505Z,69.98
2022-10-05T01:01:12.111Z,70.08
2022-10-05T01:03:53.135Z,70.30
2022-10-05T01:06:25.282Z,70.39
2022-10-05T01:09:04.165Z,70.12
2022-10-05T01:11:41.254Z,70.15
2022-10-05T01:14:19.792Z,70.31
2022-10-05T01:16:57.290Z,70.60
2022-10-05T01:19:51.842Z,70.86
2022-10-05T01:22:39.454Z,71.17
2022-10-05T01:25:23.813Z,71.24
2022-10-05T01:28:04.165Z,71.46
2022-10-05T01:30:39.280Z,71.86
2022-10-05T01:33:17.864Z,72.17
2022-10-05T01:35:57.088Z,72.80
2022-10-05T01:38:42.344Z,72.80
2022-10-05T01:41:26.991Z,72.86
2022-10-05T01:44:02.377Z,73.09
2022-10-05T01:46:37.663Z,73.36
2022-10-05T01:49:33.263Z,73.66
2022-10-05T01:52:24.861Z,73.67
2022-10-05T01:55:10.575Z,74.00
2022-10-05T01:57:57.483Z,74.06
2022-10-05T02:00:27.827Z,74.16
2022-10-05T02:03:00.944Z,74.16
2022-10-05T02:05:38.691Z,74.25
2022-10-05T02:08:13.405Z,73.98
2022-10-05T02:10:46.035Z,74.30
2022-10-05T02:13:19.828Z,74.20
2022-10-05T02:15:54.800Z,74.06
2022-10-05T02:18:28.455Z,74.02
2022-10-05T02:20:59.605Z,74.16
2022-10-05T02:23:33.931Z,73.95
2022-10-05T02:26:03.220Z,74.19
2022-10-05T02:28:38.793Z,74.39
2022-10-05T02:31:12.670Z,74.18
2022-10-05T02:33:41.402Z,74.49
2022-10-05T02:36:19.178Z,74.58
2022-10-05T02:39:02.107Z,74.63
2022-10-05T02:41:44.118Z,74.88
2022-10-05T02:44:23.023Z,75.05
2022-10-05T02:47:00.755Z,74.74
2022-10-05T02:49:40.263Z,74.99
2022-10-05T02:52:15.229Z,74.92
2022-10-05T02:54:54.473Z,75.00
2022-10-05T02:57:29.849Z,74.89
2022-10-05T03:00:07.154Z,75.17
2022-10-05T03:02:45.594Z,74.95
2022-10-05T03:05:22.234Z,74.64
2022-10-05T03:07:59.810Z,74.83
2022-10-05T03:10:36.728Z,74.66
2022-10-05T03:13:14.095Z,74.58
2022-10-05T03:16:04.812Z,74.42
2022-10-05T03:18:53.183Z,74.43
2022-10-05T03:21:52.549Z,74.37
2022-10-05T03:24:45.068Z,74.27
2022-10-05T03:27:26.761Z,74.49
2022-10-05T03:30:05.621Z,74.44
2022-10-05T03:32:47.685Z,74.63
2022-10-05T03:35:23.002Z,74.70
2022-10-05T03:38:04.404Z,74.62
2022-10-05T03:40:41.230Z,74.67
2022-10-05T03:43:56.288Z,74.59
2022-10-05T03:46:40.802Z,74.56
2022-10-05T03:49:18.910Z,74.63
2022-10-05T03:51:53.922Z,74.28
2022-10-05T03:54:27.226Z,74.62
2022-10-05T03:56:59.555Z,74.66
2022-10-05T03:59:32.919Z,74.61
2022-10-05T04:02:07.304Z,74.50
2022-10-05T04:04:40.996Z,74.31
2022-10-05T04:07:28.884Z,74.62
2022-10-05T04:09:58.460Z,74.69
2022-10-05T04:12:31.809Z,74.50
2022-10-05T04:15:05.239Z,74.59
2022-10-05T04:17:37.961Z,74.66
2022-10-05T04:20:15.990Z,74.61
2022-10-05T04:22:57.169Z,74.79
2022-10-05T04:25:30.860Z,74.76
2022-10-05T04:28:07.751Z,74.56
2022-10-05T04:30:43.133Z,74.76
2022-10-05T04:33:13.667Z,74.49
2022-10-05T04:36:01.783Z,74.45
2022-10-05T04:38:57.763Z,74.73
2022-10-05T04:41:49.763Z,74.51
2022-10-05T04:44:36.723Z,74.75
2022-10-05T04:47:23.731Z,74.57
2022-10-05T04:50:16.543Z,74.65
2022-10-05T04:53:07.198Z,74.69
2022-10-05T04:55:47.969Z,75.16
2022-10-05T04:58:27.894Z,74.88
2022-10-05T05:01:14.283Z,75.07
2022-10-05T05:04:03.498Z,75.01
2022-10-05T05:06:40.361Z,75.16
2022-10-05T05:09:43.253Z,75.05
2022-10-05T05:12:25.874Z,75.14
2022-10-05T05:15:14.148Z,74.95
2022-10-05T05:18:03.358Z,74.88
2022-10-05T05:20:49.346Z,74.59
2022-10-05T05:23:27.139Z,74.41
2022-10-05T05:26:08.406Z,74.57
2022-10-05T05:28:49.498Z,74.45
2022-10-05T05:31:29.189Z,74.33
2022-10-05T05:34:06.475Z,74.34
2022-10-05T05:36:50.392Z,74.44
2022-10-05T05:39:27.412Z,74.43
2022-10-05T05:42:12.482Z,74.37
2022-10-05T05:44:48.718Z,74.60
2022-10-05T05:47:22.172Z,74.57
2022-10-05T05:50:20.386Z,74.78
2022-10-05T05:52:56.441Z,74.68
2022-10-05T05:55:30.937Z,74.74
2022-10-05T05:58:12.438Z,74.92
2022-10-05T06:00:50.809Z,75.07
2022-10-05T06:03:26.340Z,75.08
2022-10-05T06:05:59.919Z,75.19
2022-10-05T06:08:39.267Z,75.31
2022-10-05T06:11:23.165Z,75.20
2022-10-05T06:13:52.579Z,75.60
2022-10-05T06:16:26.596Z,75.51
2022-10-05T06:19:00.467Z,75.52
2022-10-05T06:21:35.846Z,75.86
2022-10-05T06:24:12.350Z,76.18
2022-10-05T06:27:17.785Z,76.53
2022-10-05T06:30:05.979Z,76.48
2022-10-05T06:32:57.331Z,76.78
2022-10-05T06:35:44.369Z,76.78
2022-10-05T06:38:43.307Z,76.96
2022-10-05T06:41:20.968Z,76.60
2022-10-05T06:43:58.729Z,76.66
2022-10-05T06:46:56.846Z,76.91
2022-10-05T06:49:54.559Z,76.81
2022-10-05T06:53:06.855Z,76.77
2022-10-05T06:55:46.775Z,76.64
2022-10-05T06:58:32.255Z,76.73
2022-10-05T07:01:06.760Z,76.79
2022-10-05T07:03:51.261Z,76.64
2022-10-05T07:06:26.904Z,76.87
2022-10-05T07:09:16.086Z,76.70
2022-10-05T07:12:17.160Z,76.62
2022-10-05T07:15:08.439Z,76.33
2022-10-05T07:17:51.756Z,76.55
2022-10-05T07:20:29.682Z,76.61
2022-10-05T07:23:30.473Z,76.46
2022-10-05T07:26:06.262Z,76.55
2022-10-05T07:28:45.961Z,76.27
2022-10-05T07:31:26.232Z,76.45
2022-10-05T07:34:02.283Z,76.78
2022-10-05T07:36:59.129Z,76.51
2022-10-05T07:39:59.213Z,76.82
2022-10-05T07:42:50.677Z,76.88
2022-10-05T07:45:30.341Z,76.85
2022-10-05T07:48:10.619Z,76.80
2022-10-05T07:50:50.198Z,77.07
2022-10-05T07:53:24.749Z,76.90
2022-10-05T07:55:57.509Z,76.87
2022-10-05T07:58:33.382Z,76.88
2022-10-05T08:01:19.201Z,76.90
2022-10-05T08:03:55.004Z,77.31
2022-10-05T08:06:45.241Z,76.96
2022-10-05T08:09:36.190Z,77.10
2022-10-05T08:12:32.157Z,77.21
2022-10-05T08:15:08.118Z,77.28
2022-10-05T08:17:51.824Z,77.19
2022-10-05T08:20:34.923Z,77.03
2022-10-05T08:23:16.660Z,77.00
2022-10-05T08:25:55.577Z,76.75
2022-10-05T08:28:29.788Z,76.87
2022-10-05T08:31:05.978Z,77.29
2022-10-05T08:33:46.270Z,77.10
2022-10-05T08:36:17.069Z,77.13
2022-10-05T08:38:45.605Z,77.20
2022-10-05T08:42:20.279Z,76.98
2022-10-05T08:45:45.459Z,76.80
2022-10-05T08:49:04.419Z,76.77
2022-10-05T08:52:36.758Z,76.25
2022-10-05T08:55:53.455Z,76.29
2022-10-05T08:59:16.157Z,76.33
2022-10-05T09:02:15.345Z,75.97
2022-10-05T09:05:10.195Z,75.43
2022-10-05T09:08:26.198Z,75.76
2022-10-05T09:11:06.943Z,75.45
2022-10-05T09:13:57.491Z,74.62
2022-10-05T09:16:56.306Z,74.99
2022-10-05T09:19:54.791Z,74.83
2022-10-05T09:22:38.391Z,74.70
2022-10-05T09:25:22.814Z,74.36
2022-10-05T09:27:57.661Z,74.63
2022-10-05T09:30:39.929Z,74.64
2022-10-05T09:33:53.859Z,73.91
2022-10-05T09:37:14.784Z,73.99
2022-10-05T09:40:27.389Z,74.05
2022-10-05T09:43:44.633Z,74.22
2022-10-05T09:46:45.232Z,74.02
2022-10-05T09:50:20.683Z,74.40
2022-10-05T09:53:27.866Z,73.99
2022-10-05T09:56:20.323Z,74.16
2022-10-05T09:59:51.880Z,74.60
2022-10-05T10:02:38.786Z,74.44
2022-10-05T10:05:40.032Z,74.28
2022-10-05T10:08:36.375Z,74.55
2022-10-05T10:11:29.630Z,74.07
2022-10-05T10:14:26.013Z,74.13
2022-10-05T10:17:32.010Z,74.09
2022-10-05T10:20:27.825Z,73.80
2022-10-05T10:23:17.917Z,74.41
2022-10-05T10:26:34.399Z,74.46
2022-10-05T10:29:45.882Z,74.65
2022-10-05T10:32:45.142Z,74.95
2022-10-05T10:35:32.097Z,75.04
2022-10-05T10:38:34.505Z,75.17
2022-10-05T10:41:59.180Z,75.47
2022-10-05T10:44:58.971Z,75.70
2022-10-05T10:47:45.487Z,75.77
2022-10-05T10:51:10.563Z,75.83
2022-10-05T10:54:29.748Z,75.95
2022-10-05T10:57:06.390Z,76.04
2022-10-05T11:00:28.509Z,75.83
2022-10-05T11:03:47.946Z,76.16
2022-10-05T11:06:42.966Z,76.20
2022-10-05T11:09:52.658Z,76.23
2022-10-05T11:13:00.736Z,76.06
2022-10-05T11:16:21.116Z,76.08
2022-10-05T11:19:20.348Z,75.85
2022-10-05T11:22:09.631Z,75.92
2022-10-05T11:25:10.261Z,76.09
2022-10-05T11:28:01.311Z,75.85
2022-10-05T11:31:32.106Z,76.28
2022-10-05T11:34:44.999Z,75.87
2022-10-05T11:37:50.485Z,75.09
2022-10-05T11:40:53.188Z,75.21
2022-10-05T11:43:54.299Z,75.18
2022-10-05T11:46:31.405Z,75.37
2022-10-05T11:49:29.030Z,74.94
2022-10-05T11:52:07.840Z,74.78
2022-10-05T11:55:11.769Z,74.85
2022-10-05T11:57:50.296Z,75.17
2022-10-05T12:00:22.043Z,74.62
2022-10-05T12:03:22.466Z,74.91
2022-10-05T12:06:13.747Z,75.08
2022-10-05T12:08:58.180Z,74.59
2022-10-05T12:11:48.238Z,74.11
2022-10-05T12:14:29.011Z,73.79
2022-10-05T12:17:00.371Z,73.88
2022-10-05T12:19:36.528Z,73.79
2022-10-05T12:22:15.440Z,73.68
2022-10-05T12:25:13.775Z,73.39
2022-10-05T12:27:46.318Z,74.02
2022-10-05T12:30:19.202Z,73.55
2022-10-05T12:33:01.849Z,73.59
2022-10-05T12:35:54.778Z,74.07
2022-10-05T12:38:29.817Z,73.22
2022-10-05T12:41:10.728Z,73.47
2022-10-05T12:43:53.801Z,73.57
2022-10-05T12:46:34.078Z,73.57
2022-10-05T12:49:25.785Z,73.52
2022-10-05T12:51:59.650Z,73.73
2022-10-05T12:54:43.643Z,74.15
2022-10-05T12:57:21.295Z,73.41
2022-10-05T12:59:57.222Z,73.98
2022-10-05T13:02:39.027Z,73.73
2022-10-05T13:05:23.401Z,74.00
2022-10-05T13:08:12.561Z,73.93
2022-10-05T13:10:47.677Z,73.62
2022-10-05T13:13:38.294Z,74.11
2022-10-05T13:16:20.634Z,74.43
2022-10-05T13:19:00.343Z,74.04
2022-10-05T13:21:55.231Z,74.13
2022-10-05T13:24:31.443Z,73.72
2022-10-05T13:27:05.209Z,73.33
2022-10-05T13:29:41.053Z,73.92
2022-10-05T13:32:16.965Z,73.37
2022-10-05T13:34:52.754Z,73.06
2022-10-05T13:37:32.842Z,73.17
2022-10-05T13:40:18.693Z,72.92
2022-10-05T13:42:54.098Z,72.08
2022-10-05T13:45:25.271Z,72.06
2022-10-05T13:48:11.674Z,71.88
2022-10-05T13:50:48.012Z,71.99
2022-10-05T13:53:26.586Z,71.70
2022-10-05T13:56:00.922Z,70.59
2022-10-05T13:58:42.760Z,70.28
2022-10-05T14:01:19.859Z,70.39
2022-10-05T14:04:10.129Z,70.71
2022-10-05T14:06:39.380Z,70.61
2022-10-05T14:09:15.826Z,71.14
2022-10-05T14:11:52.984Z,70.99
2022-10-05T14:14:28.265Z,71.39
2022-10-05T14:16:59.216Z,71.15
2022-10-05T14:19:33.091Z,71.16
2022-10-05T14:22:04.263Z,70.95
2022-10-05T14:24:44.461Z,71.62
2022-10-05T14:27:22.534Z,70.95
2022-10-05T14:30:00.749Z,71.04
2022-10-05T14:32:33.101Z,70.82
2022-10-05T14:35:15.005Z,70.77
2022-10-05T14:37:52.570Z,71.06
2022-10-05T14:40:29.432Z,70.92
2022-10-05T14:43:02.110Z,71.10
2022-10-05T14:45:31.121Z,71.32
2022-10-05T14:48:12.259Z,71.56
2022-10-05T14:50:55.942Z,71.81
2022-10-05T14:53:26.219Z,71.42
2022-10-05T14:56:36.469Z,71.42
2022-10-05T15:00:05.522Z,71.39
2022-10-05T15:03:18.682Z,71.00
2022-10-05T15:05:51.971Z,71.18
2022-10-05T15:08:41.376Z,71.23
2022-10-05T15:11:14.427Z,71.66
2022-10-05T15:13:46.218Z,71.74
2022-10-05T15:16:21.886Z,71.51
2022-10-05T15:18:59.015Z,71.85
2022-10-05T15:21:45.057Z,71.78
2022-10-05T15:24:20.247Z,71.38
2022-10-05T15:26:51.878Z,71.40
2022-10-05T15:29:52.185Z,71.75
2022-10-05T15:32:38.012Z,71.70
2022-10-05T15:35:35.187Z,71.95
2022-10-05T15:38:17.756Z,71.86
2022-10-05T15:40:59.533Z,72.02
2022-10-05T15:43:40.414Z,72.28
2022-10-05T15:46:14.926Z,72.21
2022-10-05T15:48:55.660Z,72.56
2022-10-05T15:51:31.937Z,72.47
2022-10-05T15:54:24.685Z,72.53
2022-10-05T15:56:58.949Z,72.78
2022-10-05T15:59:37.522Z,72.90
2022-10-05T16:02:16.842Z,73.00
2022-10-05T16:05:01.092Z,72.86
2022-10-05T16:07:58.303Z,72.78
2022-10-05T16:10:27.789Z,73.00
2022-10-05T16:13:16.079Z,73.16
2022-10-05T16:15:50.140Z,72.89
2022-10-05T16:18:43.531Z,72.93
2022-10-05T16:21:26.959Z,73.07
2022-10-05T16:24:09.512Z,72.93
2022-10-05T16:26:57.656Z,72.97
2022-10-05T16:29:40.233Z,72.88
2022-10-05T16:32:15.485Z,73.01
2022-10-05T16:34:59.036Z,73.18
2022-10-05T16:37:41.234Z,73.48
2022-10-05T16:40:21.087Z,73.68
2022-10-05T16:43:02.242Z,73.69
2022-10-05T16:45:52.492Z,73.63
2022-10-05T16:48:27.435Z,73.86
2022-10-05T16:51:17.174Z,73.71
2022-10-05T16:54:02.946Z,74.28
2022-10-05T16:56:40.446Z,74.06
2022-10-05T16:59:46.868Z,74.11
2022-10-05T17:02:33.132Z,74.18
2022-10-05T17:05:18.282Z,74.13
2022-10-05T17:07:59.878Z,74.03
2022-10-05T17:10:50.338Z,74.14
2022-10-05T17:13:56.558Z,74.17
2022-10-05T17:16:39.121Z,74.42
2022-10-05T17:19:34.228Z,74.91
2022-10-05T17:22:12.711Z,75.41
2022-10-05T17:24:55.610Z,75.67
2022-10-05T17:27:35.616Z,75.50
2022-10-05T17:30:39.276Z,75.60
2022-10-05T17:33:24.765Z,75.45
2022-10-05T17:36:16.899Z,75.79
2022-10-05T17:38:53.961Z,75.65
2022-10-05T17:41:25.743Z,75.74
2022-10-05T17:44:26.123Z,75.86
2022-10-05T17:46:57.520Z,75.94
2022-10-05T17:50:10.043Z,75.98
2022-10-05T17:52:59.990Z,76.06
2022-10-05T17:55:48.380Z,76.47
2022-10-05T17:59:02.009Z,77.58
2022-10-05T18:01:37.687Z,78.77
2022-10-05T18:04:39.276Z,79.14
2022-10-05T18:07:24.003Z,79.82
2022-10-05T18:10:22.300Z,80.39
2022-10-05T18:13:21.075Z,81.06
2022-10-05T18:15:50.416Z,82.20
2022-10-05T18:18:55.864Z,82.99
2022-10-05T18:21:37.920Z,83.59
2022-10-05T18:24:53.131Z,84.43
2022-10-05T18:28:08.071Z,85.79
2022-10-05T18:30:54.133Z,86.47
2022-10-05T18:33:51.353Z,87.68
2022-10-05T18:36:48.504Z,88.72
2022-10-05T18:39:38.727Z,89.23
2022-10-05T18:42:20.155Z,87.27
2022-10-05T18:44:54.755Z,86.56
2022-10-05T18:47:32.284Z,86.98
2022-10-05T18:50:21.278Z,87.01
2022-10-05T18:53:07.750Z,87.69
2022-10-05T18:55:40.278Z,88.04
2022-10-05T18:58:17.179Z,88.42
2022-10-05T19:01:30.609Z,88.63
2022-10-05T19:04:15.293Z,89.08
2022-10-05T19:06:56.642Z,89.33
2022-10-05T19:09:49.740Z,88.48
2022-10-05T19:12:32.895Z,87.58
2022-10-05T19:15:15.873Z,86.81
2022-10-05T19:18:09.027Z,86.03
2022-10-05T19:20:42.999Z,85.40
2022-10-05T19:23:36.926Z,84.90
2022-10-05T19:26:15.714Z,84.53
2022-10-05T19:28:59.223Z,84.46
2022-10-05T19:31:37.997Z,84.01
2022-10-05T19:34:31.215Z,83.65
2022-10-05T19:37:08.012Z,83.51
2022-10-05T19:39:50.489Z,82.98
2022-10-05T19:42:46.194Z,82.75
2022-10-05T19:45:22.954Z,82.45
2022-10-05T19:48:08.551Z,81.79
2022-10-05T19:50:39.885Z,81.60
2022-10-05T19:53:15.512Z,81.01
2022-10-05T19:55:47.307Z,80.28
2022-10-05T19:58:22.623Z,80.80
2022-10-05T20:00:57.489Z,80.71
2022-10-05T20:03:29.407Z,79.45
2022-10-05T20:05:59.881Z,79.48
2022-10-05T20:08:32.107Z,82.21
2022-10-05T20:11:11.890Z,85.56
2022-10-05T20:13:41.891Z,87.64
2022-10-05T20:16:39.647Z,88.35
2022-10-05T20:19:46.947Z,89.82
2022-10-05T20:22:27.690Z,89.00
2022-10-05T20:24:56.880Z,88.56
2022-10-05T20:27:47.271Z,89.02
2022-10-05T20:30:18.913Z,88.74
2022-10-05T20:32:49.251Z,88.81
2022-10-05T20:35:18.157Z,88.12
2022-10-05T20:37:46.652Z,87.68
2022-10-05T20:40:17.754Z,87.21
2022-10-05T20:42:47.877Z,86.62
2022-10-05T20:45:17.277Z,86.12
2022-10-05T20:47:46.664Z,85.09
2022-10-05T20:50:16.078Z,84.47
2022-10-05T20:52:44.526Z,84.22
2022-10-05T20:55:14.065Z,83.93
2022-10-05T20:57:42.633Z,83.58
2022-10-05T21:00:14.841Z,82.96
2022-10-05T21:02:43.142Z,82.90
2022-10-05T21:05:11.609Z,82.89
2022-10-05T21:07:40.927Z,83.19
2022-10-05T21:10:10.247Z,83.35
2022-10-05T21:12:38.713Z,83.33
2022-10-05T21:15:08.294Z,82.97
2022-10-05T21:17:38.848Z,81.45
2022-10-05T21:20:11.513Z,80.09
2022-10-05T21:22:39.878Z,78.49
2022-10-05T21:25:09.068Z,76.36
2022-10-05T21:27:37.561Z,75.34
2022-10-05T21:30:06.954Z,74.18
2022-10-05T21:32:40.599Z,73.54
2022-10-05T21:35:11.652Z,72.95
2022-10-05T21:37:40.035Z,72.32
2022-10-05T21:40:09.394Z,72.35
2022-10-05T21:42:37.835Z,71.92
2022-10-05T21:45:08.019Z,72.04
2022-10-05T21:47:37.936Z,71.97
2022-10-05T21:50:08.572Z,71.88
2022-10-05T21:52:36.866Z,71.52
2022-10-05T21:55:07.066Z,71.53
2022-10-05T21:57:36.819Z,71.21
2022-10-05T22:00:08.153Z,71.29
2022-10-05T22:02:37.833Z,70.97
2022-10-05T22:05:06.394Z,69.87
2022-10-05T22:07:35.022Z,69.24
2022-10-05T22:10:05.721Z,68.73
2022-10-05T22:12:34.626Z,68.74
2022-10-05T22:15:03.107Z,68.92
2022-10-05T22:17:32.124Z,68.72
2022-10-05T22:20:02.370Z,69.00
2022-10-05T22:22:31.152Z,68.96
2022-10-05T22:24:59.567Z,68.84
2022-10-05T22:27:30.663Z,68.45
2022-10-05T22:29:59.544Z,67.96
2022-10-05T22:32:27.822Z,68.11
2022-10-05T22:34:56.264Z,67.80
2022-10-05T22:37:25.940Z,67.68
2022-10-05T22:39:55.205Z,67.87
2022-10-05T22:42:23.566Z,67.89
2022-10-05T22:44:51.859Z,67.72
2022-10-05T22:47:20.150Z,67.65
2022-10-05T22:49:48.440Z,67.44
2022-10-05T22:52:16.891Z,67.70
2022-10-05T22:54:46.529Z,67.78
2022-10-05T22:57:14.880Z,67.84
2022-10-05T22:59:43.141Z,68.07
2022-10-05T23:02:12.406Z,68.45
2022-10-05T23:04:40.821Z,68.34
2022-10-05T23:07:09.122Z,68.75
2022-10-05T23:09:37.997Z,68.75
2022-10-05T23:12:07.959Z,68.88
2022-10-05T23:14:36.189Z,68.49
2022-10-05T23:17:04.542Z,68.94
2022-10-05T23:19:32.934Z,67.21
2022-10-05T23:22:01.209Z,66.55
2022-10-05T23:24:29.479Z,65.62
2022-10-05T23:26:57.702Z,65.73
2022-10-05T23:29:28.639Z,64.84
2022-10-05T23:31:57.121Z,64.78
2022-10-05T23:34:27.258Z,64.93
2022-10-05T23:36:55.503Z,64.48
2022-10-05T23:39:25.352Z,64.09
2022-10-05T23:41:53.812Z,64.52
2022-10-05T23:44:23.099Z,64.66
2022-10-05T23:46:52.833Z,64.67
2022-10-05T23:49:21.203Z,64.52
2022-10-05T23:51:49.599Z,64.48
2022-10-05T23:54:17.943Z,64.49
2022-10-05T23:56:46.137Z,64.80
2022-10-05T23:59:14.364Z,64.19
